createdAt,value
2019-02-25T00:00:11.763Z,17.80
2019-02-25T00:02:40.181Z,16.63
2019-02-25T00:05:08.960Z,15.27
2019-02-25T00:07:37.508Z,15.87
2019-02-25T00:10:09.151Z,16.30
2019-02-25T00:12:37.551Z,16.27
2019-02-25T00:15:08.367Z,17.23
2019-02-25T00:17:36.789Z,17.17
2019-02-25T00:20:08.449Z,18.27
2019-02-25T00:22:36.884Z,15.60
2019-02-25T00:25:07.717Z,16.33
2019-02-25T00:27:36.116Z,16.50
2019-02-25T00:30:12.553Z,17.37
2019-02-25T00:32:40.954Z,17.83
2019-02-25T00:35:09.354Z,15.67
2019-02-25T00:37:37.839Z,16.10
2019-02-25T00:40:08.374Z,16.43
2019-02-25T00:42:36.807Z,15.67
2019-02-25T00:45:08.305Z,16.43
2019-02-25T00:47:36.742Z,18.13
2019-02-25T00:50:11.177Z,14.33
2019-02-25T00:52:39.579Z,16.07
2019-02-25T00:55:08.719Z,18.53
2019-02-25T00:57:37.111Z,14.97
2019-02-25T01:00:14.102Z,15.00
2019-02-25T01:02:42.525Z,13.87
2019-02-25T01:05:10.924Z,15.07
2019-02-25T01:07:39.387Z,13.03
2019-02-25T01:10:11.769Z,14.47
2019-02-25T01:12:40.539Z,14.63
2019-02-25T01:15:09.109Z,16.57
2019-02-25T01:17:37.520Z,12.80
2019-02-25T01:20:08.596Z,14.30
2019-02-25T01:22:36.999Z,14.13
2019-02-25T01:25:10.527Z,12.43
2019-02-25T01:27:38.972Z,13.43
2019-02-25T01:30:12.606Z,15.63
2019-02-25T01:32:41.001Z,15.43
2019-02-25T01:35:13.196Z,12.10
2019-02-25T01:37:41.588Z,14.43
2019-02-25T01:40:16.063Z,13.90
2019-02-25T01:42:44.459Z,14.93
2019-02-25T01:45:15.164Z,13.97
2019-02-25T01:47:43.637Z,12.43
2019-02-25T01:50:12.201Z,12.90
2019-02-25T01:52:40.609Z,13.30
2019-02-25T01:55:11.618Z,14.20
2019-02-25T01:57:40.017Z,15.53
2019-02-25T02:00:13.506Z,12.57
2019-02-25T02:02:41.898Z,17.63
2019-02-25T02:05:10.299Z,14.90
2019-02-25T02:07:38.698Z,13.73
2019-02-25T02:10:09.832Z,15.93
2019-02-25T02:12:38.245Z,13.37
2019-02-25T02:15:12.618Z,14.60
2019-02-25T02:17:41.010Z,14.83
2019-02-25T02:20:11.955Z,16.10
2019-02-25T02:22:40.347Z,15.73
2019-02-25T02:25:10.193Z,13.03
2019-02-25T02:27:38.639Z,15.93
2019-02-25T02:30:10.324Z,11.60
2019-02-25T02:32:38.787Z,13.17
2019-02-25T02:35:07.621Z,14.93
2019-02-25T02:37:36.023Z,13.83
2019-02-25T02:40:06.660Z,12.93
2019-02-25T02:42:35.053Z,11.67
2019-02-25T02:45:05.460Z,16.30
2019-02-25T02:47:40.487Z,13.53
2019-02-25T02:50:12.237Z,11.37
2019-02-25T02:52:40.622Z,15.40
2019-02-25T02:55:09.339Z,12.47
2019-02-25T02:57:37.734Z,12.33
2019-02-25T03:00:12.230Z,13.90
2019-02-25T03:02:40.624Z,13.30
2019-02-25T03:05:11.583Z,13.37
2019-02-25T03:07:39.981Z,13.90
2019-02-25T03:10:10.752Z,12.03
2019-02-25T03:12:39.141Z,15.30
2019-02-25T03:15:10.822Z,13.60
2019-02-25T03:17:39.220Z,14.43
2019-02-25T03:20:10.271Z,11.93
2019-02-25T03:22:38.672Z,12.37
2019-02-25T03:25:09.616Z,13.10
2019-02-25T03:27:38.015Z,12.90
2019-02-25T03:30:12.580Z,14.20
2019-02-25T03:32:40.972Z,13.27
2019-02-25T03:35:09.512Z,13.73
2019-02-25T03:37:37.913Z,14.77
2019-02-25T03:40:11.858Z,10.73
2019-02-25T03:42:40.329Z,13.80
2019-02-25T03:45:16.262Z,14.93
2019-02-25T03:47:44.656Z,12.27
2019-02-25T03:50:13.131Z,11.33
2019-02-25T03:52:41.797Z,13.00
2019-02-25T03:55:18.229Z,13.27
2019-02-25T03:57:46.667Z,14.63
2019-02-25T04:00:21.232Z,13.53
2019-02-25T04:02:49.631Z,11.10
2019-02-25T04:05:18.037Z,12.73
2019-02-25T04:07:46.451Z,11.17
2019-02-25T04:10:15.412Z,12.80
2019-02-25T04:12:43.818Z,11.73
2019-02-25T04:15:15.905Z,11.93
2019-02-25T04:17:44.292Z,12.37
2019-02-25T04:20:14.751Z,13.07
2019-02-25T04:22:43.318Z,12.87
2019-02-25T04:25:11.910Z,11.70
2019-02-25T04:27:40.314Z,12.33
2019-02-25T04:30:13.896Z,12.30
2019-02-25T04:32:42.288Z,14.53
2019-02-25T04:35:11.445Z,12.47
2019-02-25T04:37:39.839Z,13.37
2019-02-25T04:40:13.031Z,11.77
2019-02-25T04:42:41.443Z,11.07
2019-02-25T04:45:12.498Z,12.50
2019-02-25T04:47:40.919Z,11.80
2019-02-25T04:50:10.970Z,13.70
2019-02-25T04:52:39.365Z,12.50
2019-02-25T04:55:09.755Z,12.20
2019-02-25T04:57:38.314Z,14.27
2019-02-25T05:00:13.147Z,11.00
2019-02-25T05:02:41.534Z,11.10
2019-02-25T05:05:09.948Z,12.63
2019-02-25T05:07:38.349Z,13.43
2019-02-25T05:10:09.914Z,14.37
2019-02-25T05:12:39.387Z,12.10
2019-02-25T05:15:09.295Z,13.70
2019-02-25T05:17:37.684Z,15.37
2019-02-25T05:20:07.033Z,11.63
2019-02-25T05:22:37.527Z,12.13
2019-02-25T05:25:08.155Z,12.57
2019-02-25T05:27:36.547Z,12.97
2019-02-25T05:30:08.690Z,12.73
2019-02-25T05:32:37.367Z,15.93
2019-02-25T05:35:07.917Z,18.80
2019-02-25T05:37:36.317Z,17.70
2019-02-25T05:40:07.453Z,13.13
2019-02-25T05:42:35.850Z,12.67
2019-02-25T05:45:04.903Z,13.03
2019-02-25T05:47:33.377Z,13.80
2019-02-25T05:50:01.797Z,11.83
2019-02-25T05:52:30.206Z,16.13
2019-02-25T05:54:58.640Z,16.40
2019-02-25T05:57:27.036Z,11.87
2019-02-25T05:59:56.908Z,14.53
2019-02-25T06:02:25.311Z,14.80
2019-02-25T06:04:53.740Z,21.67
2019-02-25T06:07:22.221Z,16.10
2019-02-25T06:09:50.652Z,15.73
2019-02-25T06:12:19.057Z,15.97
2019-02-25T06:14:47.498Z,14.40
2019-02-25T06:17:15.910Z,17.43
2019-02-25T06:19:44.312Z,19.10
2019-02-25T06:22:12.716Z,18.53
2019-02-25T06:24:41.123Z,14.80
2019-02-25T06:27:09.528Z,16.87
2019-02-25T06:29:37.923Z,14.27
2019-02-25T06:32:06.326Z,18.93
2019-02-25T06:34:34.739Z,17.17
2019-02-25T06:37:03.154Z,17.20
2019-02-25T06:39:31.561Z,18.47
2019-02-25T06:41:59.991Z,16.17
2019-02-25T06:44:28.404Z,22.07
2019-02-25T06:46:56.798Z,19.57
2019-02-25T06:49:25.213Z,23.00
2019-02-25T06:51:53.612Z,22.70
2019-02-25T06:54:22.010Z,23.93
2019-02-25T06:56:50.413Z,23.80
2019-02-25T06:59:18.880Z,27.17
2019-02-25T07:01:47.362Z,28.50
2019-02-25T07:04:35.664Z,29.43
2019-02-25T07:07:08.858Z,27.53
2019-02-25T07:09:54.011Z,32.47
2019-02-25T07:12:36.330Z,33.50
2019-02-25T07:15:07.928Z,35.13
2019-02-25T07:17:54.453Z,34.73
2019-02-25T07:20:33.518Z,35.97
2019-02-25T07:23:03.571Z,38.57
2019-02-25T07:25:39.315Z,36.67
2019-02-25T07:28:24.420Z,36.17
2019-02-25T07:31:12.382Z,37.90
2019-02-25T07:33:48.288Z,38.67
2019-02-25T07:36:24.311Z,36.20
2019-02-25T07:39:03.731Z,39.73
2019-02-25T07:41:38.182Z,37.00
2019-02-25T07:44:11.301Z,37.87
2019-02-25T07:46:43.795Z,35.00
2019-02-25T07:49:25.966Z,38.67
2019-02-25T07:52:05.109Z,35.87
2019-02-25T07:54:41.353Z,36.23
2019-02-25T07:59:44.943Z,33.47
2019-02-25T08:02:14.985Z,33.63
2019-02-25T08:04:45.031Z,34.30
2019-02-25T08:07:17.684Z,36.30
2019-02-25T08:09:53.816Z,32.83
2019-02-25T08:12:26.665Z,34.30
2019-02-25T08:14:56.798Z,34.77
2019-02-25T08:17:29.786Z,33.87
2019-02-25T08:20:08.873Z,33.57
2019-02-25T08:22:41.489Z,33.63
2019-02-25T08:25:27.599Z,33.87
2019-02-25T08:27:57.638Z,33.33
2019-02-25T08:30:42.718Z,33.53
2019-02-25T08:33:18.462Z,31.73
2019-02-25T08:36:09.806Z,31.17
2019-02-25T08:38:56.204Z,32.60
2019-02-25T08:41:26.484Z,31.00
2019-02-25T08:43:59.135Z,32.23
2019-02-25T08:46:29.189Z,32.53
2019-02-25T08:48:59.245Z,29.20
2019-02-25T08:51:27.687Z,29.10
2019-02-25T08:53:56.087Z,28.00
2019-02-25T08:56:24.523Z,29.80
2019-02-25T08:58:52.999Z,26.93
2019-02-25T09:01:21.425Z,28.03
2019-02-25T09:03:49.885Z,26.40
2019-02-25T09:06:18.349Z,29.17
2019-02-25T09:08:46.761Z,26.13
2019-02-25T09:11:15.348Z,25.30
2019-02-25T09:13:43.746Z,26.87
2019-02-25T09:16:12.151Z,25.20
2019-02-25T09:18:40.555Z,25.63
2019-02-25T09:21:08.985Z,25.73
2019-02-25T09:23:37.386Z,24.50
2019-02-25T09:26:05.792Z,27.33
2019-02-25T09:28:34.194Z,25.03
2019-02-25T09:31:02.634Z,24.63
2019-02-25T09:33:31.085Z,23.67
2019-02-25T09:35:59.488Z,22.23
2019-02-25T09:38:27.933Z,24.73
2019-02-25T09:40:56.332Z,24.20
2019-02-25T09:43:24.815Z,22.37
2019-02-25T09:45:53.220Z,22.20
2019-02-25T09:48:21.647Z,20.97
2019-02-25T09:50:50.061Z,23.43
2019-02-25T09:53:18.495Z,22.87
2019-02-25T09:55:46.904Z,21.87
2019-02-25T09:58:15.337Z,22.67
2019-02-25T10:00:43.739Z,22.00
2019-02-25T10:03:12.161Z,23.20
2019-02-25T10:05:40.570Z,19.90
2019-02-25T10:08:08.999Z,20.93
2019-02-25T10:10:37.407Z,20.50
2019-02-25T10:13:05.848Z,19.57
2019-02-25T10:15:34.241Z,20.70
2019-02-25T10:18:02.647Z,19.47
2019-02-25T10:20:31.094Z,19.13
2019-02-25T10:22:59.500Z,18.53
2019-02-25T10:25:27.905Z,19.57
2019-02-25T10:27:56.309Z,19.00
2019-02-25T10:30:24.709Z,20.97
2019-02-25T10:32:53.110Z,19.83
2019-02-25T10:35:27.248Z,19.53
2019-02-25T10:37:55.694Z,17.70
2019-02-25T10:40:25.357Z,19.50
2019-02-25T10:42:54.229Z,17.37
2019-02-25T10:45:23.466Z,18.53
2019-02-25T10:47:57.536Z,19.17
2019-02-25T10:50:21.996Z,17.37
2019-02-25T10:52:50.397Z,17.60
2019-02-25T10:55:27.818Z,18.03
2019-02-25T10:57:57.616Z,19.20
2019-02-25T11:00:26.553Z,16.10
2019-02-25T11:02:56.425Z,18.23
2019-02-25T11:05:27.700Z,18.37
2019-02-25T11:07:55.366Z,17.93
2019-02-25T11:10:25.467Z,16.93
2019-02-25T11:12:55.501Z,15.53
2019-02-25T11:15:24.354Z,15.77
2019-02-25T11:17:53.899Z,14.83
2019-02-25T11:20:22.930Z,15.53
2019-02-25T11:22:51.377Z,14.00
2019-02-25T11:25:21.476Z,15.63
2019-02-25T11:27:49.946Z,16.20
2019-02-25T11:30:19.363Z,15.47
2019-02-25T11:32:49.589Z,15.20
2019-02-25T11:35:18.885Z,13.00
2019-02-25T11:37:47.336Z,13.73
2019-02-25T11:40:16.966Z,14.57
2019-02-25T11:42:45.398Z,15.87
2019-02-25T11:45:19.133Z,13.20
2019-02-25T11:47:47.561Z,13.97
2019-02-25T11:50:17.612Z,13.00
2019-02-25T11:52:46.039Z,15.13
2019-02-25T11:55:15.590Z,13.90
2019-02-25T11:57:44.071Z,13.40
2019-02-25T12:00:15.728Z,14.10
2019-02-25T12:02:44.152Z,13.80
2019-02-25T12:05:13.028Z,12.33
2019-02-25T12:07:41.475Z,14.10
2019-02-25T12:10:12.024Z,13.03
2019-02-25T12:12:40.419Z,11.90
2019-02-25T12:15:14.782Z,12.00
2019-02-25T12:17:43.216Z,12.27
2019-02-25T12:20:13.744Z,11.93
2019-02-25T12:22:42.143Z,12.67
2019-02-25T12:25:21.447Z,10.03
2019-02-25T12:27:49.863Z,12.33
2019-02-25T12:30:25.490Z,10.50
2019-02-25T12:32:53.904Z,10.20
2019-02-25T12:35:22.313Z,10.60
2019-02-25T12:37:50.712Z,10.97
2019-02-25T12:40:19.174Z,10.90
2019-02-25T12:42:47.576Z,9.53
2019-02-25T12:45:16.238Z,10.07
2019-02-25T12:47:44.623Z,9.50
2019-02-25T12:50:16.916Z,10.40
2019-02-25T12:52:45.311Z,10.07
2019-02-25T12:55:18.881Z,9.43
2019-02-25T12:57:47.273Z,10.80
2019-02-25T13:00:22.575Z,10.20
2019-02-25T13:02:51.028Z,10.53
2019-02-25T13:05:23.445Z,9.80
2019-02-25T13:07:51.833Z,9.70
2019-02-25T13:10:20.218Z,9.27
2019-02-25T13:12:48.641Z,8.47
2019-02-25T13:15:22.078Z,9.10
2019-02-25T13:17:50.470Z,8.40
2019-02-25T13:20:18.879Z,8.90
2019-02-25T13:22:47.685Z,8.37
2019-02-25T13:25:27.919Z,9.10
2019-02-25T13:27:58.300Z,8.20
2019-02-25T13:30:26.473Z,7.47
2019-02-25T13:32:54.865Z,8.57
2019-02-25T13:35:23.303Z,9.00
2019-02-25T13:37:51.698Z,9.57
2019-02-25T13:40:20.090Z,8.27
2019-02-25T13:42:48.483Z,8.00
2019-02-25T13:45:19.285Z,7.97
2019-02-25T13:47:47.673Z,8.87
2019-02-25T13:50:16.984Z,7.40
2019-02-25T13:52:48.193Z,7.63
2019-02-25T13:55:19.476Z,8.23
2019-02-25T13:57:47.873Z,7.40
2019-02-25T14:00:20.812Z,8.47
2019-02-25T14:02:49.205Z,6.87
2019-02-25T14:05:17.642Z,7.60
2019-02-25T14:07:46.043Z,7.13
2019-02-25T14:10:18.266Z,7.47
2019-02-25T14:12:46.664Z,7.10
2019-02-25T14:15:21.043Z,8.33
2019-02-25T14:17:49.441Z,7.47
2019-02-25T14:20:19.708Z,7.17
2019-02-25T14:22:48.106Z,7.73
2019-02-25T14:25:19.931Z,7.83
2019-02-25T14:27:48.423Z,7.53
2019-02-25T14:30:20.019Z,6.60
2019-02-25T14:32:52.920Z,6.87
2019-02-25T14:35:18.603Z,7.00
2019-02-25T14:37:47.065Z,6.60
2019-02-25T14:40:21.637Z,9.33
2019-02-25T14:42:52.031Z,7.60
2019-02-25T14:45:21.882Z,7.40
2019-02-25T14:47:55.353Z,6.57
2019-02-25T14:50:21.572Z,6.93
2019-02-25T14:52:50.098Z,7.33
2019-02-25T14:55:19.543Z,7.40
2019-02-25T14:57:47.932Z,7.70
2019-02-25T15:00:28.346Z,8.47
2019-02-25T15:02:55.116Z,7.90
2019-02-25T15:05:26.531Z,6.80
2019-02-25T15:07:54.927Z,10.03
2019-02-25T15:10:26.597Z,8.10
2019-02-25T15:12:56.529Z,8.93
2019-02-25T15:15:24.300Z,7.73
2019-02-25T15:17:52.869Z,7.50
2019-02-25T15:20:23.452Z,7.50
2019-02-25T15:22:52.428Z,8.10
2019-02-25T15:25:21.292Z,8.27
2019-02-25T15:27:49.679Z,8.20
2019-02-25T15:30:25.672Z,8.07
2019-02-25T15:32:57.113Z,8.30
2019-02-25T15:35:26.419Z,8.43
2019-02-25T15:37:55.434Z,9.23
2019-02-25T15:40:25.510Z,8.87
2019-02-25T15:43:12.609Z,9.90
2019-02-25T15:45:42.528Z,9.00
2019-02-25T15:48:14.502Z,8.50
2019-02-25T15:50:46.129Z,9.13
2019-02-25T15:53:16.041Z,9.67
2019-02-25T15:55:44.094Z,9.93
2019-02-25T15:58:12.771Z,10.63
2019-02-25T16:00:41.268Z,10.03
2019-02-25T16:03:11.180Z,10.97
2019-02-25T16:05:39.822Z,13.80
2019-02-25T16:08:08.227Z,15.10
2019-02-25T16:10:36.672Z,16.27
2019-02-25T16:13:09.886Z,17.57
2019-02-25T16:15:35.515Z,17.40
2019-02-25T16:18:04.061Z,19.20
2019-02-25T16:20:32.742Z,19.53
2019-02-25T16:23:02.796Z,21.33
2019-02-25T16:25:32.176Z,19.83
2019-02-25T16:28:01.125Z,22.80
2019-02-25T16:30:30.776Z,24.60
2019-02-25T16:33:00.099Z,24.80
2019-02-25T16:35:29.528Z,25.00
2019-02-25T16:37:59.926Z,25.50
2019-02-25T16:40:29.132Z,22.50
2019-02-25T16:42:59.674Z,22.93
2019-02-25T16:45:34.566Z,25.13
2019-02-25T16:47:58.508Z,28.77
2019-02-25T16:50:27.111Z,26.77
2019-02-25T16:52:55.583Z,30.93
2019-02-25T16:55:27.496Z,32.90
2019-02-25T16:57:55.316Z,34.23
2019-02-25T17:00:29.369Z,36.80
2019-02-25T17:02:59.239Z,36.43
2019-02-25T17:05:26.542Z,40.63
2019-02-25T17:07:56.106Z,39.83
2019-02-25T17:10:27.059Z,41.30
2019-02-25T17:12:56.006Z,43.50
2019-02-25T17:15:26.916Z,47.53
2019-02-25T17:17:58.410Z,46.40
2019-02-25T17:20:27.805Z,48.30
2019-02-25T17:22:55.444Z,47.03
2019-02-25T17:25:26.967Z,48.27
2019-02-25T17:27:54.030Z,45.57
2019-02-25T17:30:24.128Z,54.33
2019-02-25T17:32:52.650Z,55.17
2019-02-25T17:35:23.556Z,50.03
2019-02-25T17:37:53.253Z,47.53
2019-02-25T17:40:22.035Z,53.67
2019-02-25T17:42:51.656Z,46.90
2019-02-25T17:45:22.417Z,52.40
2019-02-25T17:47:58.205Z,51.97
2019-02-25T17:50:23.290Z,46.90
2019-02-25T17:52:53.267Z,52.13
2019-02-25T17:55:27.236Z,47.17
2019-02-25T17:57:58.603Z,52.50
2019-02-25T18:00:34.998Z,49.97
2019-02-25T18:03:03.782Z,49.73
2019-02-25T18:05:34.122Z,49.70
2019-02-25T18:08:02.977Z,44.17
2019-02-25T18:10:32.595Z,47.23
2019-02-25T18:13:02.680Z,48.47
2019-02-25T18:15:32.914Z,50.37
2019-02-25T18:18:01.380Z,45.67
2019-02-25T18:20:30.038Z,47.67
2019-02-25T18:22:58.726Z,49.33
2019-02-25T18:25:27.202Z,47.37
2019-02-25T18:27:55.647Z,43.70
2019-02-25T18:30:30.194Z,47.10
2019-02-25T18:33:00.993Z,46.70
2019-02-25T18:35:29.023Z,45.17
2019-02-25T18:37:58.513Z,49.87
2019-02-25T18:40:27.963Z,44.33
2019-02-25T18:42:58.059Z,46.20
2019-02-25T18:45:26.930Z,49.63
2019-02-25T18:47:55.446Z,47.07
2019-02-25T18:50:25.939Z,48.53
2019-02-25T18:52:55.011Z,45.93
2019-02-25T18:55:27.101Z,49.37
2019-02-25T18:57:56.335Z,44.37
2019-02-25T19:00:31.842Z,45.83
2019-02-25T19:03:00.852Z,43.37
2019-02-25T19:05:31.466Z,42.63
2019-02-25T19:07:59.972Z,42.10
2019-02-25T19:10:28.534Z,40.97
2019-02-25T19:12:58.663Z,41.20
2019-02-25T19:15:27.154Z,39.73
2019-02-25T19:17:55.558Z,41.93
2019-02-25T19:20:24.932Z,40.73
2019-02-25T19:22:53.345Z,46.13
2019-02-25T19:25:23.077Z,41.03
2019-02-25T19:27:56.055Z,40.50
2019-02-25T19:30:24.860Z,39.97
2019-02-25T19:32:54.517Z,44.67
2019-02-25T19:35:25.815Z,41.37
2019-02-25T19:37:53.447Z,44.00
2019-02-25T19:40:24.616Z,38.53
2019-02-25T19:42:54.250Z,40.27
2019-02-25T19:45:23.500Z,38.13
2019-02-25T19:47:51.986Z,39.83
2019-02-25T19:50:25.363Z,39.07
2019-02-25T19:52:53.694Z,37.27
2019-02-25T19:55:23.468Z,37.97
2019-02-25T19:57:51.982Z,36.63
2019-02-25T20:00:30.277Z,37.40
2019-02-25T20:03:05.617Z,39.00
2019-02-25T20:05:33.091Z,38.70
2019-02-25T20:08:00.869Z,38.23
2019-02-25T20:10:30.650Z,32.83
2019-02-25T20:12:59.592Z,33.83
2019-02-25T20:15:28.017Z,41.13
2019-02-25T20:17:56.424Z,57.70
2019-02-25T20:20:26.493Z,41.37
2019-02-25T20:22:54.927Z,68.77
2019-02-25T20:25:24.647Z,60.50
2019-02-25T20:27:55.130Z,73.33
2019-02-25T20:30:25.732Z,72.80
2019-02-25T20:32:54.089Z,48.37
2019-02-25T20:35:24.370Z,43.63
2019-02-25T20:37:55.518Z,34.93
2019-02-25T20:40:25.532Z,37.20
2019-02-25T20:42:55.908Z,35.57
2019-02-25T20:45:35.341Z,27.27
2019-02-25T20:48:04.320Z,29.53
2019-02-25T20:50:32.955Z,30.53
2019-02-25T20:53:05.497Z,25.97
2019-02-25T20:55:32.210Z,28.53
2019-02-25T20:58:01.690Z,28.20
2019-02-25T21:00:30.137Z,29.13
2019-02-25T21:02:58.572Z,26.77
2019-02-25T21:05:27.437Z,23.33
2019-02-25T21:07:57.928Z,24.40
2019-02-25T21:10:27.897Z,25.17
2019-02-25T21:12:57.098Z,25.00
2019-02-25T21:15:26.469Z,23.70
2019-02-25T21:17:56.824Z,25.30
2019-02-25T21:20:26.221Z,20.13
2019-02-25T21:22:57.835Z,19.87
2019-02-25T21:25:26.749Z,23.13
2019-02-25T21:27:59.203Z,22.50
2019-02-25T21:30:26.120Z,20.30
2019-02-25T21:32:56.468Z,20.07
2019-02-25T21:35:27.570Z,19.80
2019-02-25T21:37:54.859Z,18.50
2019-02-25T21:40:26.854Z,20.17
2019-02-25T21:42:56.366Z,18.23
2019-02-25T21:45:26.899Z,17.13
2019-02-25T21:48:04.824Z,16.60
2019-02-25T21:50:34.002Z,20.23
2019-02-25T21:53:04.900Z,20.03
2019-02-25T21:55:34.463Z,19.47
2019-02-25T21:58:04.865Z,21.93
2019-02-25T22:00:35.875Z,16.50
2019-02-25T22:03:04.505Z,17.10
2019-02-25T22:05:33.337Z,17.10
2019-02-25T22:08:03.662Z,17.23
2019-02-25T22:10:34.068Z,16.47
2019-02-25T22:13:06.717Z,14.40
2019-02-25T22:15:33.870Z,14.03
2019-02-25T22:18:03.937Z,14.27
2019-02-25T22:20:35.640Z,17.60
2019-02-25T22:23:03.567Z,15.67
2019-02-25T22:25:32.684Z,16.30
2019-02-25T22:28:01.693Z,14.43
2019-02-25T22:30:31.255Z,14.70
2019-02-25T22:33:00.681Z,14.40
2019-02-25T22:35:33.091Z,14.37
2019-02-25T22:38:00.512Z,14.70
2019-02-25T22:40:32.036Z,16.57
2019-02-25T22:43:00.156Z,14.13
2019-02-25T22:45:28.556Z,12.33
2019-02-25T22:47:56.950Z,13.17
2019-02-25T22:50:26.996Z,13.33
2019-02-25T22:52:58.226Z,11.30
2019-02-25T22:55:25.606Z,10.30
2019-02-25T22:57:54.223Z,12.47
2019-02-25T23:00:41.624Z,14.83
2019-02-25T23:03:11.077Z,11.03
2019-02-25T23:05:42.979Z,15.07
2019-02-25T23:08:12.796Z,13.33
2019-02-25T23:10:41.976Z,13.60
2019-02-25T23:13:09.734Z,11.67
2019-02-25T23:15:38.135Z,10.87
2019-02-25T23:18:10.095Z,12.00
2019-02-25T23:20:36.668Z,14.00
2019-02-25T23:23:06.699Z,11.80
2019-02-25T23:25:35.188Z,11.57
2019-02-25T23:28:03.577Z,13.50
2019-02-25T23:30:32.010Z,13.00
2019-02-25T23:33:00.409Z,13.17
2019-02-25T23:35:28.852Z,11.77
2019-02-25T23:37:58.621Z,11.93
2019-02-25T23:40:31.286Z,10.47
2019-02-25T23:42:57.555Z,11.83
2019-02-25T23:45:25.984Z,10.87
2019-02-25T23:47:57.616Z,11.60
2019-02-25T23:50:25.687Z,10.37
2019-02-25T23:52:54.730Z,13.83
2019-02-25T23:55:24.956Z,10.57
2019-02-25T23:57:53.409Z,11.63
